Latest Coastal Weather Observations for Cape Otway

IDV60701

Issued at 11:25 pm EST Wednesday 30 July 2014 (issued every 10 minutes, with the page automatically refreshed every 10 minutes)

About coastal observations | Map of coastal stations | Coastal observations for VIC | Marine services | Other Formats
Station Details ID: 090015 Name: CAPE OTWAY LIGHTHOUSE Lat: -38.86 Lon: 143.51 Height: 82.0 m
Data from the previous 72 hours. | See also: Recent months at Cape Otway
Date/Time
EST
Temp

°C
Wind Pressure Rain
since 9am
mm
Weather Cloud Vis
km
Sea
Height
m
Swell
Dir
 
Speed
knots
Gust
knots
hPa Trend Height
m
Period
s
Dir
30/11:05pm 13.1 NNW 18 39 1003.5 - 0.6 - - - - - - -
30/11:04pm 13.1 NNW 18 39 1003.5 - 0.6 - - - - - - -
30/11:01pm 12.8 NNW 16 28 1003.7 - 0.6 - - - - - - -
30/11:00pm 12.8 NNW 16 25 1003.8 - 0.6 - - - - - - -
30/10:30pm 14.0 NNW 25 44 1003.9 - 0.6 - - - - - - -
30/10:00pm 13.8 NNW 22 36 1004.2 - 0.6 - - - - - - -
30/09:30pm 13.7 NNW 19 35 1004.2 - 0.6 - - - - - - -
30/09:00pm 14.0 NNW 19 37 1004.5 - 0.6 - - - - - - -
30/08:30pm 14.0 NNW 19 31 1005.0 - 0.6 - - - - - - -
30/08:00pm 13.9 NNW 21 36 1005.2 - 0.6 - - - - - - -
30/07:30pm 14.2 NNW 20 33 1005.4 - 0.6 - - - - - - -
30/07:00pm 14.0 NW 19 31 1005.6 - 0.6 - - - - - - -
30/06:30pm 13.9 NNW 17 27 1005.3 - 0.6 - - - - - - -
30/06:00pm 13.9 NW 19 31 1005.8 - 0.6 - - - - - - -
30/05:30pm 14.0 NW 16 27 1005.7 - 0.6 - - - - - - -
30/05:00pm 14.7 NW 19 31 1005.6 - 0.6 - - - - - - -
30/04:30pm 14.6 NW 18 29 1005.7 - 0.6 - - - - - - -
30/04:01pm 14.7 NW 18 28 1005.9 - 0.6 - - - - - - -
30/04:00pm 14.8 NW 19 28 1005.9 - 0.6 - - - - - - -
30/03:30pm 14.6 WNW 22 33 1006.0 - 0.6 - - - - - - -
30/03:06pm 14.7 NW 21 31 1006.1 - 0.6 - - - - - - -
30/03:05pm 14.7 NW 21 31 1006.1 - 0.6 - - - - - - -
30/03:00pm 14.7 NW 21 29 1006.2 F 0.6 Distant precip. Mostly cloudy 20 3 4.0 9 SW
30/02:30pm 14.8 WNW 25 39 1006.0 - 0.6 - - - - - - -
30/02:00pm 14.4 WNW 25 37 1006.0 - 0.6 - - - - - - -
30/01:30pm 13.4 NW 23 37 1006.3 - 0.6 - - - - - - -
30/01:19pm 13.8 WNW 22 42 1006.5 - 0.2 - - - - - - -
30/01:00pm 15.1 NW 21 35 1006.5 - 0.0 - - - - - - -
30/12:30pm 14.5 NW 21 34 1007.3 - 0.0 - - - - - - -
30/12:00pm 14.2 NW 23 33 1007.9 - 0.0 - - - - - - -
30/11:30am 14.2 NW 21 34 1008.0 - 0.0 - - - - - - -
30/11:01am 14.1 NW 20 30 1008.3 - 0.0 - - - - - - -
30/11:00am 14.1 NW 21 30 1008.3 - 0.0 - - - - - - -
30/10:30am 14.1 NW 20 31 1008.3 - 0.0 - - - - - - -
30/10:00am 13.5 NW 19 31 1008.6 - 0.0 - - - - - - -
30/09:30am 13.3 NW 19 31 1008.6 - 0.0 - - - - - - -
30/09:00am 13.2 NW 21 31 1008.9 F 3.4 Distant precip. Partly cloudy 20 3 4.0 9 SW
30/08:30am 12.8 NW 20 31 1008.4 - 3.4 - - - - - - -
30/08:01am 12.4 NW 19 29 1008.5 - 3.4 - - - - - - -
30/08:00am 12.4 NW 18 28 1008.5 - 3.4 - - - - - - -
30/07:46am 12.2 NW 17 28 1008.6 - 3.4 - - - - - - -
30/07:41am 12.3 NW 16 26 1008.6 - 3.4 - - - - - - -
30/07:30am 12.3 NW 17 26 1008.5 - 3.4 - - - - - - -
30/07:01am 12.1 NW 17 27 1008.0 - 3.4 - - - - - - -
30/07:00am 12.0 NW 17 26 1008.0 - 3.4 - - - - - - -
30/06:30am 12.2 NW 18 28 1008.1 - 3.4 - - - - - - -
30/06:10am 12.0 NW 18 29 1008.0 - 3.4 - - - - - - -
30/06:09am 12.0 NW 18 29 1008.0 - 3.4 - - - - - - -
30/06:00am 11.9 NW 18 25 1008.1 - 3.4 - - - - - - -
30/05:30am 12.0 NW 19 27 1008.0 - 3.4 - - - - - - -
30/05:00am 12.4 NW 17 29 1008.0 - 3.4 - - - - - - -
30/04:30am 13.4 WNW 25 36 1007.7 - 3.4 - - - - - - -
30/04:08am 13.1 WNW 20 32 1007.7 - 3.4 - - - - - - -
30/04:00am 13.2 WNW 19 29 1007.8 - 3.4 - - - - - - -
30/03:39am 13.3 WNW 21 31 1007.8 - 3.4 - - - - - - -
30/03:38am 13.3 WNW 21 31 1007.8 - 3.4 - - - - - - -
30/03:30am 13.3 WNW 23 31 1008.0 - 3.4 - - - - - - -
30/03:00am 12.9 WNW 26 40 1008.2 - 3.4 - - - - - - -
30/02:30am 12.1 WNW 24 34 1008.3 - 3.4 - - - - - - -
30/02:00am 13.5 WNW 20 30 1008.2 - 3.2 - - - - - - -
30/01:30am 13.4 WNW 21 32 1008.1 - 3.2 - - - - - - -
30/01:00am 13.5 WNW 21 31 1008.0 - 3.2 - - - - - - -
30/12:30am 13.6 WNW 21 31 1007.9 - 3.2 - - - - - - -
30/12:00am 13.5 WNW 23 38 1007.7 - 3.2 - - - - - - -
 
Date/Time
EST
Temp

°C
Wind Pressure Rain
since 9am
mm
Weather Cloud Vis
km
Sea
Height
m
Swell
Dir
 
Speed
knots
Gust
knots
hPa Trend Height
m
Period
s
Dir
29/11:30pm 13.4 WNW 22 33 1007.4 - 3.2 - - - - - - -
29/11:00pm 13.2 WNW 26 43 1007.2 - 3.2 - - - - - - -
29/10:42pm 13.4 WNW 21 44 1007.0 - 3.0 - - - - - - -
29/10:41pm 13.4 WNW 21 44 1007.0 - 3.0 - - - - - - -
29/10:30pm 13.7 WNW 22 33 1007.0 - 3.0 - - - - - - -
29/10:00pm 13.2 WNW 23 35 1006.9 - 3.0 - - - - - - -
29/09:30pm 14.0 WNW 19 31 1006.4 - 2.4 - - - - - - -
29/09:00pm 13.9 WNW 22 33 1006.7 - 2.4 - - - - - - -
29/08:36pm 13.9 WNW 21 31 1006.5 - 2.4 - - - - - - -
29/08:35pm 13.9 WNW 21 31 1006.5 - 2.4 - - - - - - -
29/08:30pm 13.9 WNW 22 31 1006.4 - 2.4 - - - - - - -
29/08:00pm 13.4 WNW 27 39 1006.0 - 2.4 - - - - - - -
29/07:38pm 13.6 WNW 26 36 1005.9 - 2.4 - - - - - - -
29/07:37pm 13.6 WNW 26 36 1005.9 - 2.4 - - - - - - -
29/07:30pm 13.6 WNW 26 35 1005.9 - 2.4 - - - - - - -
29/07:00pm 13.5 WNW 29 40 1005.2 - 2.2 - - - - - - -
29/06:30pm 13.8 WNW 29 41 1004.4 - 2.2 - - - - - - -
29/06:00pm 13.8 WNW 29 43 1004.0 - 2.2 - - - - - - -
29/05:30pm 14.6 WNW 28 40 1003.6 - 2.2 - - - - - - -
29/05:00pm 14.0 WNW 31 45 1003.1 - 2.2 - - - - - - -
29/04:30pm 13.6 WNW 27 41 1002.9 - 2.0 - - - - - - -
29/04:00pm 14.6 NW 23 37 1002.6 - 1.6 - - - - - - -
29/03:30pm 14.2 NW 24 40 1002.4 - 1.6 - - - - - - -
29/03:00pm 14.8 NW 22 34 1002.2 R 1.6 Distant precip. Fog 20 3 3.0 9 SW
29/02:30pm 14.5 NW 23 34 1002.1 - 1.6 - - - - - - -
29/02:00pm 14.0 NW 24 37 1002.0 - 1.6 - - - - - - -
29/01:45pm 13.9 WNW 28 41 1002.0 - 1.6 - - - - - - -
29/01:44pm 13.9 WNW 27 41 1002.0 - 1.6 - - - - - - -
29/01:30pm 13.7 NW 19 30 1002.1 - 1.6 - - - - - - -
29/01:00pm 13.4 WNW 27 37 1002.7 - 0.6 - - - - - - -
29/12:30pm 14.9 NW 23 36 1002.0 - 0.4 - - - - - - -
29/12:00pm 14.8 NW 25 41 1002.6 - 0.4 - - - - - - -
29/11:30am 14.2 NW 23 36 1003.1 - 0.4 - - - - - - -
29/11:00am 13.6 NNW 23 38 1003.4 - 0.4 - - - - - - -
29/10:30am 12.6 NW 17 29 1003.6 - 0.4 - - - - - - -
29/10:00am 12.8 NNW 21 35 1003.8 - 0.4 - - - - - - -
29/09:30am 12.6 NW 21 34 1003.9 - 0.0 - - - - - - -
29/09:00am 12.3 NNW 23 34 1003.5 F 1.4 Distant precip. Cloudy 20 3 3.0 9 SW
29/08:30am 12.2 NNW 22 35 1003.6 - 1.4 - - - - - - -
29/08:00am 12.0 NNW 21 38 1004.2 - 0.8 - - - - - - -
29/07:30am 12.2 NNW 23 38 1003.9 - 0.4 - - - - - - -
29/07:00am 12.4 NNW 24 37 1003.8 - 0.2 - - - - - - -
29/06:30am 12.5 NNW 24 35 1003.4 - 0.2 - - - - - - -
29/06:00am 13.4 NNW 23 43 1003.3 - 0.0 - - - - - - -
29/05:30am 13.3 NNW 22 34 1003.4 - 0.0 - - - - - - -
29/05:00am 13.2 NNW 22 37 1003.9 - 0.0 - - - - - - -
29/04:30am 13.3 NNW 21 33 1003.9 - 0.0 - - - - - - -
29/04:00am 13.3 NW 21 32 1004.2 - 0.0 - - - - - - -
29/03:30am 13.3 NW 19 33 1004.6 - 0.0 - - - - - - -
29/03:00am 13.3 NW 19 32 1005.1 - 0.0 - - - - - - -
29/02:30am 13.4 NNW 24 40 1005.1 - 0.0 - - - - - - -
29/02:00am 13.0 NNW 23 40 1005.8 - 0.0 - - - - - - -
29/01:30am 12.9 NNW 19 31 1006.1 - 0.0 - - - - - - -
29/01:00am 13.0 NNW 21 33 1006.5 - 0.0 - - - - - - -
29/12:30am 13.1 NNW 21 33 1007.1 - 0.0 - - - - - - -
29/12:00am 13.0 NW 17 28 1007.6 - 0.0 - - - - - - -
 
Date/Time
EST
Temp

°C
Wind Pressure Rain
since 9am
mm
Weather Cloud Vis
km
Sea
Height
m
Swell
Dir
 
Speed
knots
Gust
knots
hPa Trend Height
m
Period
s
Dir
28/11:31pm 13.0 NNW 17 28 1007.9 - 0.0 - - - - - - -
28/11:30pm 13.0 NNW 17 26 1007.9 - 0.0 - - - - - - -
28/11:00pm 13.0 NNW 20 32 1008.3 - 0.0 - - - - - - -
28/10:30pm 13.4 NNW 20 32 1008.6 - 0.0 - - - - - - -
28/10:00pm 13.7 NNW 21 36 1008.7 - 0.0 - - - - - - -
28/09:30pm 13.5 NNW 18 29 1009.0 - 0.0 - - - - - - -
28/09:00pm 13.8 NNW 19 36 1009.3 - 0.0 - - - - - - -
28/08:30pm 13.7 NNW 17 28 1009.0 - 0.0 - - - - - - -
28/08:00pm 13.9 NNW 17 29 1009.1 - 0.0 - - - - - - -
28/07:34pm 13.9 NNW 16 26 1009.1 - 0.0 - - - - - - -
28/07:33pm 13.9 NNW 16 26 1009.1 - 0.0 - - - - - - -
28/07:30pm 14.0 NNW 17 25 1009.1 - 0.0 - - - - - - -
28/07:00pm 14.0 NW 17 32 1009.3 - 0.0 - - - - - - -
28/06:51pm 14.0 NNW 17 27 1009.2 - 0.0 - - - - - - -
28/06:46pm 14.0 NW 15 25 1009.3 - 0.0 - - - - - - -
28/06:30pm 14.1 NW 15 23 1009.1 - 0.0 - - - - - - -
28/06:00pm 14.4 NW 15 24 1009.2 - 0.0 - - - - - - -
28/05:30pm 14.4 NW 14 23 1009.1 - 0.0 - - - - - - -
28/05:00pm 14.7 NW 14 23 1009.0 - 0.0 - - - - - - -
28/04:30pm 15.2 NW 12 19 1009.0 - 0.0 - - - - - - -
28/04:00pm 15.4 NW 15 23 1009.2 - 0.0 - - - - - - -
28/03:51pm 15.4 NW 15 25 1009.1 - 0.0 - - - - - - -
28/03:50pm 15.4 NW 15 25 1009.1 - 0.0 - - - - - - -
28/03:30pm 15.5 NW 14 23 1009.3 - 0.0 - - - - - - -
28/03:00pm 15.4 NW 17 25 1009.8 F 0.0 Fine Mostly clear 20 2 2.0 9 S
28/02:30pm 15.4 NW 18 29 1010.0 - 0.0 - - - - - - -
28/02:00pm 15.5 NW 18 29 1010.0 - 0.0 - - - - - - -
28/01:40pm 15.2 NW 15 25 1010.2 - 0.0 - - - - - - -
28/01:39pm 15.2 NW 15 25 1010.2 - 0.0 - - - - - - -
28/01:30pm 15.2 NW 14 23 1010.3 - 0.0 - - - - - - -
28/01:00pm 15.1 NW 14 22 1010.8 - 0.0 - - - - - - -
28/12:51pm 15.2 NW 15 25 1011.0 - 0.0 - - - - - - -
28/12:50pm 15.1 NW 15 25 1011.0 - 0.0 - - - - - - -
28/12:30pm 14.7 NW 17 25 1011.4 - 0.0 - - - - - - -
28/12:16pm 14.7 NW 16 26 1011.5 - 0.0 - - - - - - -
28/12:15pm 14.7 NW 16 26 1011.5 - 0.0 - - - - - - -
28/12:00pm 14.6 NW 17 24 1011.8 - 0.0 - - - - - - -
28/11:32am 14.3 NW 16 26 1012.0 - 0.0 - - - - - - -
28/11:31am 14.3 NW 16 26 1012.0 - 0.0 - - - - - - -
28/11:30am 14.3 NW 17 26 1012.1 - 0.0 - - - - - - -
28/11:20am 14.1 NW 16 27 1012.2 - 0.0 - - - - - - -
28/11:19am 14.1 NW 16 27 1012.2 - 0.0 - - - - - - -
28/11:00am 14.0 NW 16 25 1012.4 - 0.0 - - - - - - -
28/10:48am 13.7 NW 15 28 1012.4 - 0.0 - - - - - - -
28/10:47am 13.7 NW 15 28 1012.4 - 0.0 - - - - - - -
28/10:30am 13.6 NW 15 23 1012.4 - 0.0 - - - - - - -
28/10:08am 13.4 NW 15 25 1012.4 - 0.0 - - - - - - -
28/10:00am 13.4 NW 14 24 1012.4 - 0.0 - - - - - - -
28/09:30am 12.9 NNW 15 26 1012.4 - 0.0 - - - - - - -
28/09:06am 12.7 NNW 15 25 1012.4 - 0.0 - - - - - - -
28/09:05am 12.7 NNW 15 25 1012.4 - 0.0 - - - - - - -
28/09:00am 12.5 NNW 16 25 1012.4 F 0.0 Fine Mostly clear 20 2 3.0 10 S
28/08:41am 12.4 NNW 15 25 1012.4 - 0.0 - - - - - - -
28/08:30am 12.0 NNW 16 23 1012.4 - 0.0 - - - - - - -
28/08:25am 11.9 NNW 16 26 1012.4 - 0.0 - - - - - - -
28/08:24am 11.9 NNW 16 26 1012.4 - 0.0 - - - - - - -
28/08:00am 12.0 NNW 16 23 1012.6 - 0.0 - - - - - - -
28/07:30am 11.6 NNW 16 23 1012.7 - 0.0 - - - - - - -
28/07:00am 12.0 NNW 15 25 1012.6 - 0.0 - - - - - - -
28/06:32am 12.5 NNW 18 28 1012.4 - 0.0 - - - - - - -
28/06:31am 12.5 NNW 18 28 1012.4 - 0.0 - - - - - - -
28/06:30am 12.3 NNW 18 27 1012.4 - 0.0 - - - - - - -
28/06:00am 12.4 NNW 16 26 1012.5 - 0.0 - - - - - - -
28/05:41am 12.4 NNW 17 27 1012.5 - 0.0 - - - - - - -
28/05:40am 12.4 NNW 17 27 1012.5 - 0.0 - - - - - - -
28/05:30am 12.4 NNW 17 25 1012.6 - 0.0 - - - - - - -
28/05:00am 12.2 NNW 17 29 1012.8 - 0.0 - - - - - - -
28/04:41am 12.4 NNW 16 26 1012.8 - 0.0 - - - - - - -
28/04:40am 12.4 NNW 16 26 1012.8 - 0.0 - - - - - - -
28/04:30am 12.5 NNW 17 25 1012.8 - 0.0 - - - - - - -
28/04:00am 12.7 NNW 17 29 1013.0 - 0.0 - - - - - - -
28/03:30am 13.0 NNW 17 31 1013.1 - 0.0 - - - - - - -
28/03:00am 12.9 NNW 17 27 1013.6 - 0.0 - - - - - - -
28/02:30am 13.0 NNW 18 30 1013.5 - 0.0 - - - - - - -
28/02:00am 13.1 NNW 19 34 1013.6 - 0.0 - - - - - - -
28/01:30am 13.6 NNW 19 29 1013.8 - 0.0 - - - - - - -
28/01:00am 14.1 NNW 21 37 1014.0 - 0.0 - - - - - - -
28/12:30am 13.6 NNW 20 35 1014.3 - 0.0 - - - - - - -
28/12:00am 13.6 NNW 20 31 1014.8 - 0.0 - - - - - - -
 
Date/Time
EST
Temp

°C
Wind Pressure Rain
since 9am
mm
Weather Cloud Vis
km
Sea
Height
m
Swell
Dir
 
Speed
knots
Gust
knots
hPa Trend Height
m
Period
s
Dir
27/11:30pm 13.0 NNW 19 31 1015.0 - 0.0 - - - - - - -

Other Formats:

Comma delimited format used in spreadsheet applications
http://www.bom.gov.au/fwo/IDV60701/IDV60701.94842.axf

JavaScript Object Notation format (JSON) in row-major order
http://www.bom.gov.au/fwo/IDV60701/IDV60701.94842.json